^^

..:: Storico WU ::..




Lo storico viene creato da WUnderground con i dati che la stazione Meteomincio invia al loro server. L' aggiornamento viene fatto ogni 5 minuti circa, tuttavia possono esserci intervalli pił ampi a causa di errori, interruzioni di servizio o problemi nell' invio tramite FTP.


Storico stazione MeteoMincio
Giorno Sommario per Settembre 16, 2022 Unità:  Inglese    Metrico   Entrambi
Giorno Settimana Mese Anno
  Max: Min: Media:
Temperatura: 86 °F 64.4 °F 74.1 °F
Dew Point: 71.6 °F 62.6 °F 65.7 °F
Umidità: 92% 54% 77%
Velocità vento: 12.4mph 0mph 4.6mph
Raffica: 17.4mph - -
Direzione- - SE
Pressione: 29.7 in 29.5 in -
Precipitazioni: 0 in    
 
 
Tabulato Dati per Settembre 16, 2022
Ora Temperatura Dew Point Pressione Direzione Velocità vento Raffica Umidità Intensità pioggia (oraria) Info solare Situazione
00:04 68 °F 64.4 °F 29.6 in Calm   1.2 mph 84% 0 in 0.00 W/m2 unknown
00:09 68 °F 64.4 °F 29.6 in Calm     84% 0 in 0.00 W/m2 unknown
00:14 68 °F 62.6 °F 29.6 in Calm     85% 0 in 0.00 W/m2 unknown
00:19 68 °F 62.6 °F 29.6 in Calm     86% 0 in 0.00 W/m2 unknown
00:24 68 °F 64.4 °F 29.6 in Calm     86% 0 in 0.00 W/m2 unknown
00:29 68 °F 62.6 °F 29.7 in Calm     86% 0 in 0.00 W/m2 unknown
00:34 68 °F 62.6 °F 29.7 in Calm     87% 0 in 0.00 W/m2 unknown
00:39 68 °F 62.6 °F 29.6 in Calm     87% 0 in 0.00 W/m2 unknown
00:44 68 °F 62.6 °F 29.6 in Calm     87% 0 in 0.00 W/m2 unknown
00:49 68 °F 62.6 °F 29.6 in Calm     86% 0 in 0.00 W/m2 unknown
00:54 68 °F 62.6 °F 29.6 in Calm     87% 0 in 0.00 W/m2 unknown
00:59 68 °F 62.6 °F 29.6 in Calm     87% 0 in 0.00 W/m2 unknown
01:04 68 °F 62.6 °F 29.6 in Calm     87% 0 in 0.00 W/m2 unknown
01:09 68 °F 62.6 °F 29.6 in North 0.6 mph 2.5 mph 87% 0 in 0.00 W/m2 unknown
01:14 68 °F 62.6 °F 29.6 in Calm   1.9 mph 87% 0 in 0.00 W/m2 unknown
01:19 68 °F 62.6 °F 29.6 in WSW 1.9 mph 2.5 mph 87% 0 in 0.00 W/m2 unknown
01:24 66.2 °F 62.6 °F 29.6 in WSW 1.2 mph 2.5 mph 88% 0 in 0.00 W/m2 unknown
01:29 66.2 °F 62.6 °F 29.6 in West 1.2 mph 2.5 mph 88% 0 in 0.00 W/m2 unknown
01:34 66.2 °F 62.6 °F 29.6 in West 1.2 mph 2.5 mph 88% 0 in 0.00 W/m2 unknown
01:39 66.2 °F 62.6 °F 29.6 in West 1.9 mph 3.7 mph 88% 0 in 0.00 W/m2 unknown
01:43 64.4 °F 62.6 °F 29.6 in West 1.9 mph 2.5 mph 89% 0 in 0.00 W/m2 unknown
01:49 66.2 °F 62.6 °F 29.6 in West 1.2 mph 2.5 mph 89% 0 in 0.00 W/m2 unknown
01:54 66.2 °F 62.6 °F 29.6 in West 1.2 mph 1.9 mph 89% 0 in 0.00 W/m2 unknown
01:59 66.2 °F 62.6 °F 29.6 in West 0.6 mph 1.9 mph 88% 0 in 0.00 W/m2 unknown
02:04 66.2 °F 62.6 °F 29.6 in ENE 3.1 mph 3.7 mph 88% 0 in 0.00 W/m2 unknown
02:09 66.2 °F 62.6 °F 29.6 in ENE 2.5 mph 3.7 mph 89% 0 in 0.00 W/m2 unknown
02:14 66.2 °F 62.6 °F 29.6 in NE 2.5 mph 3.7 mph 89% 0 in 0.00 W/m2 unknown
02:19 66.2 °F 62.6 °F 29.6 in NE 1.9 mph 3.7 mph 89% 0 in 0.00 W/m2 unknown
02:24 66.2 °F 62.6 °F 29.6 in NE 1.9 mph 2.5 mph 90% 0 in 0.00 W/m2 unknown
02:29 66.2 °F 62.6 °F 29.6 in NE 1.9 mph 2.5 mph 90% 0 in 0.00 W/m2 unknown
02:34 66.2 °F 62.6 °F 29.6 in NE 1.2 mph 2.5 mph 90% 0 in 0.00 W/m2 unknown
02:39 66.2 °F 62.6 °F 29.6 in NE 1.2 mph 2.5 mph 90% 0 in 0.00 W/m2 unknown
02:44 66.2 °F 62.6 °F 29.6 in NE 1.2 mph 2.5 mph 90% 0 in 0.00 W/m2 unknown
02:49 66.2 °F 62.6 °F 29.6 in East 1.9 mph 2.5 mph 90% 0 in 0.00 W/m2 unknown
02:54 66.2 °F 62.6 °F 29.6 in ESE 2.5 mph 3.7 mph 90% 0 in 0.00 W/m2 unknown
02:59 64.4 °F 62.6 °F 29.7 in East 2.5 mph 3.7 mph 90% 0 in 0.00 W/m2 unknown
03:04 64.4 °F 62.6 °F 29.6 in ENE 1.2 mph 3.1 mph 90% 0 in 0.00 W/m2 unknown
03:09 64.4 °F 62.6 °F 29.6 in ENE 1.2 mph 2.5 mph 91% 0 in 0.00 W/m2 unknown
03:14 64.4 °F 62.6 °F 29.6 in ENE 0.6 mph 1.9 mph 90% 0 in 0.00 W/m2 unknown
03:19 64.4 °F 62.6 °F 29.6 in ENE 1.9 mph 2.5 mph 90% 0 in 0.00 W/m2 unknown
03:24 64.4 °F 62.6 °F 29.6 in ENE 1.2 mph 2.5 mph 90% 0 in 0.00 W/m2 unknown
03:29 64.4 °F 62.6 °F 29.6 in ENE 3.1 mph 3.7 mph 91% 0 in 0.00 W/m2 unknown
03:34 64.4 °F 62.6 °F 29.6 in ENE 2.5 mph 3.7 mph 91% 0 in 0.00 W/m2 unknown
03:39 64.4 °F 62.6 °F 29.6 in ENE 2.5 mph 3.7 mph 91% 0 in 0.00 W/m2 unknown
03:44 64.4 °F 62.6 °F 29.6 in ENE 1.9 mph 3.1 mph 91% 0 in 0.00 W/m2 unknown
03:49 64.4 °F 62.6 °F 29.6 in NE 3.1 mph 3.7 mph 91% 0 in 0.00 W/m2 unknown
03:54 64.4 °F 62.6 °F 29.7 in NE 3.1 mph 3.7 mph 92% 0 in 0.00 W/m2 unknown
03:59 64.4 °F 62.6 °F 29.6 in NE 2.5 mph 3.7 mph 91% 0 in 0.00 W/m2 unknown
04:04 64.4 °F 62.6 °F 29.6 in NE 3.1 mph 3.7 mph 91% 0 in 0.00 W/m2 unknown
04:09 64.4 °F 62.6 °F 29.7 in NE 2.5 mph 3.7 mph 91% 0 in 0.00 W/m2 unknown
04:14 64.4 °F 62.6 °F 29.6 in NE 1.9 mph 3.1 mph 91% 0 in 0.00 W/m2 unknown
04:19 64.4 °F 62.6 °F 29.6 in ENE 2.5 mph 3.7 mph 91% 0 in 0.00 W/m2 unknown
04:24 64.4 °F 62.6 °F 29.6 in ENE 2.5 mph 3.7 mph 91% 0 in 0.00 W/m2 unknown
04:29 64.4 °F 62.6 °F 29.6 in ENE 1.9 mph 3.7 mph 90% 0 in 0.00 W/m2 unknown
04:34 66.2 °F 62.6 °F 29.6 in ENE 1.9 mph 3.1 mph 90% 0 in 0.00 W/m2 unknown
04:39 66.2 °F 62.6 °F 29.6 in East 1.9 mph 3.7 mph 90% 0 in 0.00 W/m2 unknown
04:44 66.2 °F 62.6 °F 29.6 in East 2.5 mph 5 mph 90% 0 in 0.00 W/m2 unknown
04:49 66.2 °F 62.6 °F 29.6 in ENE 3.1 mph 5 mph 89% 0 in 0.00 W/m2 unknown
04:54 66.2 °F 62.6 °F 29.6 in East 2.5 mph 5 mph 89% 0 in 0.00 W/m2 unknown
04:59 66.2 °F 62.6 °F 29.6 in East 3.1 mph 5 mph 89% 0 in 0.00 W/m2 unknown
05:04 66.2 °F 62.6 °F 29.6 in East 3.1 mph 5 mph 89% 0 in 0.00 W/m2 unknown
05:09 66.2 °F 62.6 °F 29.6 in East 2.5 mph 5 mph 89% 0 in 0.00 W/m2 unknown
05:14 66.2 °F 62.6 °F 29.6 in East 3.1 mph 5 mph 89% 0 in 0.00 W/m2 unknown
05:19 66.2 °F 62.6 °F 29.6 in East 3.7 mph 5 mph 89% 0 in 0.00 W/m2 unknown
05:24 66.2 °F 62.6 °F 29.6 in ENE 3.7 mph 5 mph 89% 0 in 0.00 W/m2 unknown
05:29 66.2 °F 62.6 °F 29.6 in ENE 3.7 mph 5 mph 89% 0 in 0.00 W/m2 unknown
05:34 66.2 °F 62.6 °F 29.6 in ENE 4.3 mph 5 mph 89% 0 in 0.00 W/m2 unknown
05:39 66.2 °F 62.6 °F 29.6 in ENE 4.3 mph 6.2 mph 89% 0 in 0.00 W/m2 unknown
05:44 66.2 °F 62.6 °F 29.6 in ENE 5 mph 6.8 mph 89% 0 in 0.00 W/m2 unknown
05:49 66.2 °F 62.6 °F 29.6 in ENE 5 mph 6.8 mph 89% 0 in 0.00 W/m2 unknown
05:54 66.2 °F 62.6 °F 29.6 in ENE 5 mph 6.8 mph 89% 0 in 0.00 W/m2 unknown
05:59 66.2 °F 62.6 °F 29.6 in ENE 5 mph 6.8 mph 89% 0 in 0.00 W/m2 unknown
06:04 66.2 °F 62.6 °F 29.6 in ENE 5 mph 6.8 mph 89% 0 in 0.00 W/m2 unknown
06:09 66.2 °F 62.6 °F 29.6 in East 3.7 mph 6.2 mph 90% 0 in 0.00 W/m2 unknown
06:14 66.2 °F 62.6 °F 29.6 in East 4.3 mph 6.2 mph 90% 0 in 0.00 W/m2 unknown
06:19 66.2 °F 62.6 °F 29.6 in East 2.5 mph 5 mph 90% 0 in 0.00 W/m2 unknown
06:24 66.2 °F 62.6 °F 29.6 in East 3.1 mph 5 mph 90% 0 in 0.00 W/m2 unknown
06:29 66.2 °F 62.6 °F 29.6 in ENE 3.1 mph 5 mph 90% 0 in 0.00 W/m2 unknown
06:34 66.2 °F 62.6 °F 29.6 in ENE 4.3 mph 6.2 mph 90% 0 in 0.00 W/m2 unknown
06:39 66.2 °F 62.6 °F 29.6 in East 3.7 mph 6.2 mph 90% 0 in 0.00 W/m2 unknown
06:44 66.2 °F 62.6 °F 29.6 in ENE 3.7 mph 6.2 mph 90% 0 in 0.00 W/m2 unknown
06:49 66.2 °F 62.6 °F 29.6 in ENE 3.1 mph 6.2 mph 90% 0 in 0.00 W/m2 unknown
06:54 66.2 °F 62.6 °F 29.6 in East 2.5 mph 5 mph 90% 0 in 0.00 W/m2 unknown
06:59 66.2 °F 62.6 °F 29.6 in ENE 2.5 mph 3.7 mph 90% 0 in 0.00 W/m2 unknown
07:03 66.2 °F 62.6 °F 29.6 in ENE 2.5 mph 3.7 mph 90% 0 in 7.00 W/m2 unknown
07:09 66.2 °F 62.6 °F 29.6 in ENE 3.1 mph 3.7 mph 91% 0 in 12.00 W/m2 unknown
07:14 66.2 °F 62.6 °F 29.6 in NE 3.7 mph 5 mph 91% 0 in 14.00 W/m2 unknown
07:19 66.2 °F 62.6 °F 29.6 in ENE 3.7 mph 6.2 mph 91% 0 in 16.00 W/m2 unknown
07:24 66.2 °F 62.6 °F 29.6 in ENE 3.7 mph 6.2 mph 90% 0 in 16.00 W/m2 unknown
07:29 66.2 °F 62.6 °F 29.6 in ENE 3.1 mph 4.3 mph 90% 0 in 16.00 W/m2 unknown
07:34 66.2 °F 62.6 °F 29.6 in ENE 3.1 mph 5 mph 90% 0 in 16.00 W/m2 unknown
07:39 66.2 °F 62.6 °F 29.6 in ENE 3.7 mph 3.7 mph 90% 0 in 16.00 W/m2 unknown
07:44 66.2 °F 62.6 °F 29.6 in ENE 3.7 mph 3.7 mph 90% 0 in 21.00 W/m2 unknown
07:49 66.2 °F 62.6 °F 29.6 in ENE 3.1 mph 3.7 mph 91% 0 in 42.00 W/m2 unknown
07:54 66.2 °F 62.6 °F 29.6 in NE 3.1 mph 3.7 mph 91% 0 in 40.00 W/m2 unknown
07:59 66.2 °F 62.6 °F 29.6 in NE 3.1 mph 3.7 mph 91% 0 in 63.00 W/m2 unknown
08:04 66.2 °F 64.4 °F 29.6 in NE 3.1 mph 3.7 mph 91% 0 in 62.00 W/m2 unknown
08:09 66.2 °F 64.4 °F 29.6 in NE 2.5 mph 3.7 mph 91% 0 in 70.00 W/m2 unknown
08:14 66.2 °F 64.4 °F 29.6 in NE 1.9 mph 3.7 mph 90% 0 in 97.00 W/m2 unknown
08:19 66.2 °F 64.4 °F 29.6 in ENE 1.9 mph 3.7 mph 90% 0 in 121.00 W/m2 unknown
08:24 68 °F 64.4 °F 29.6 in ENE 2.5 mph 3.7 mph 90% 0 in 137.00 W/m2 unknown
08:29 68 °F 64.4 °F 29.6 in ENE 3.1 mph 5 mph 90% 0 in 149.00 W/m2 unknown
08:34 68 °F 64.4 °F 29.6 in ENE 3.1 mph 5 mph 89% 0 in 162.00 W/m2 unknown
08:39 68 °F 64.4 °F 29.6 in East 2.5 mph 5 mph 89% 0 in 178.00 W/m2 unknown
08:44 68 °F 64.4 °F 29.7 in East 3.1 mph 5 mph 89% 0 in 195.00 W/m2 unknown
08:49 69.8 °F 66.2 °F 29.7 in East 2.5 mph 3.7 mph 88% 0 in 223.00 W/m2 unknown
08:54 69.8 °F 66.2 °F 29.7 in ENE 3.1 mph 3.7 mph 88% 0 in 229.00 W/m2 unknown
08:59 69.8 °F 66.2 °F 29.7 in ENE 3.7 mph 5 mph 87% 0 in 229.00 W/m2 unknown
09:04 69.8 °F 66.2 °F 29.7 in ENE 2.5 mph 5 mph 88% 0 in 229.00 W/m2 unknown
09:09 69.8 °F 66.2 °F 29.7 in ENE 3.7 mph 5 mph 88% 0 in 278.00 W/m2 unknown
09:14 69.8 °F 66.2 °F 29.7 in East 4.3 mph 6.2 mph 87% 0 in 278.00 W/m2 unknown
09:19 71.6 °F 66.2 °F 29.7 in ENE 5 mph 6.2 mph 87% 0 in 285.00 W/m2 unknown
09:24 71.6 °F 68 °F 29.7 in East 3.1 mph 6.2 mph 86% 0 in 306.00 W/m2 unknown
09:29 71.6 °F 68 °F 29.7 in East 3.7 mph 6.2 mph 86% 0 in 306.00 W/m2 unknown
09:34 71.6 °F 68 °F 29.7 in East 6.8 mph 9.3 mph 85% 0 in 297.00 W/m2 unknown
09:39 71.6 °F 68 °F 29.7 in East 7.5 mph 9.3 mph 85% 0 in 343.00 W/m2 unknown
09:44 73.4 °F 68 °F 29.7 in East 6.8 mph 8.7 mph 85% 0 in 362.00 W/m2 unknown
09:49 73.4 °F 68 °F 29.7 in East 6.2 mph 9.3 mph 84% 0 in 367.00 W/m2 unknown
09:54 73.4 °F 68 °F 29.7 in ESE 5 mph 8.7 mph 84% 0 in 200.00 W/m2 unknown
09:59 73.4 °F 68 °F 29.7 in East 3.7 mph 6.8 mph 84% 0 in 406.00 W/m2 unknown
10:04 75.2 °F 69.8 °F 29.7 in ENE 5 mph 6.8 mph 84% 0 in 422.00 W/m2 unknown
10:09 75.2 °F 69.8 °F 29.7 in East 4.3 mph 6.8 mph 83% 0 in 431.00 W/m2 unknown
10:14 75.2 °F 69.8 °F 29.7 in ENE 6.8 mph 9.3 mph 82% 0 in 436.00 W/m2 unknown
10:19 75.2 °F 69.8 °F 29.7 in ENE 7.5 mph 10.6 mph 82% 0 in 445.00 W/m2 unknown
10:24 75.2 °F 69.8 °F 29.7 in ENE 7.5 mph 10.6 mph 81% 0 in 450.00 W/m2 unknown
10:29 75.2 °F 69.8 °F 29.7 in ENE 6.8 mph 9.9 mph 80% 0 in 459.00 W/m2 unknown
10:34 77 °F 69.8 °F 29.7 in East 6.2 mph 9.3 mph 80% 0 in 480.00 W/m2 unknown
10:39 77 °F 69.8 °F 29.7 in East 6.8 mph 9.3 mph 79% 0 in 485.00 W/m2 unknown
10:44 77 °F 69.8 °F 29.7 in East 6.2 mph 8.7 mph 79% 0 in 497.00 W/m2 unknown
10:49 77 °F 69.8 °F 29.7 in NE 7.5 mph 8.7 mph 79% 0 in 506.00 W/m2 unknown
10:54 77 °F 69.8 °F 29.7 in ENE 7.5 mph 9.3 mph 78% 0 in 524.00 W/m2 unknown
10:59 77 °F 69.8 °F 29.7 in ENE 6.2 mph 8.7 mph 77% 0 in 531.00 W/m2 unknown
11:04 77 °F 69.8 °F 29.6 in ENE 7.5 mph 9.3 mph 77% 0 in 540.00 W/m2 unknown
11:09 78.8 °F 69.8 °F 29.6 in ENE 6.2 mph 9.3 mph 77% 0 in 548.00 W/m2 unknown
11:14 78.8 °F 69.8 °F 29.6 in NE 6.2 mph 8.7 mph 76% 0 in 563.00 W/m2 unknown
11:19 78.8 °F 69.8 °F 29.6 in ENE 6.2 mph 9.3 mph 76% 0 in 570.00 W/m2 unknown
11:24 78.8 °F 69.8 °F 29.6 in East 6.8 mph 10.6 mph 75% 0 in 578.00 W/m2 unknown
11:29 78.8 °F 69.8 °F 29.6 in ESE 6.2 mph 9.9 mph 75% 0 in 584.00 W/m2 unknown
11:34 78.8 °F 69.8 °F 29.6 in East 5 mph 8.1 mph 75% 0 in 596.00 W/m2 unknown
11:39 78.8 °F 69.8 °F 29.6 in ENE 5.6 mph 8.1 mph 73% 0 in 599.00 W/m2 unknown
11:44 78.8 °F 69.8 °F 29.6 in East 8.1 mph 10.6 mph 74% 0 in 612.00 W/m2 unknown
11:49 78.8 °F 69.8 °F 29.6 in ESE 5.6 mph 9.9 mph 74% 0 in 622.00 W/m2 unknown
11:54 78.8 °F 69.8 °F 29.6 in ESE 6.2 mph 8.1 mph 74% 0 in 633.00 W/m2 unknown
11:59 78.8 °F 69.8 °F 29.6 in ESE 4.3 mph 8.1 mph 73% 0 in 640.00 W/m2 unknown
12:04 80.6 °F 71.6 °F 29.6 in NE 5.6 mph 8.1 mph 74% 0 in 645.00 W/m2 unknown
12:09 80.6 °F 69.8 °F 29.6 in East 3.7 mph 6.2 mph 71% 0 in 652.00 W/m2 unknown
12:14 80.6 °F 69.8 °F 29.6 in East 5.6 mph 6.8 mph 72% 0 in 664.00 W/m2 unknown
12:19 80.6 °F 69.8 °F 29.6 in NE 5.6 mph 6.8 mph 71% 0 in 668.00 W/m2 unknown
12:24 80.6 °F 69.8 °F 29.6 in NE 5.6 mph 6.8 mph 70% 0 in 671.00 W/m2 unknown
12:29 80.6 °F 69.8 °F 29.6 in East 5 mph 6.8 mph 70% 0 in 680.00 W/m2 unknown
12:34 80.6 °F 71.6 °F 29.6 in SE 4.3 mph 6.8 mph 71% 0 in 682.00 W/m2 unknown
12:39 80.6 °F 71.6 °F 29.6 in ESE 5 mph 6.8 mph 71% 0 in 684.00 W/m2 unknown
12:44 80.6 °F 71.6 °F 29.6 in East 5 mph 6.8 mph 71% 0 in 693.00 W/m2 unknown
12:49 82.4 °F 69.8 °F 29.6 in NE 5.6 mph 6.8 mph 69% 0 in 708.00 W/m2 unknown
12:53 82.4 °F 69.8 °F 29.6 in East 2.5 mph 6.8 mph 69% 0 in 729.00 W/m2 unknown
12:59 82.4 °F 69.8 °F 29.6 in South 6.2 mph 8.1 mph 68% 0 in 763.00 W/m2 unknown
13:04 82.4 °F 69.8 °F 29.6 in SE 6.2 mph 8.1 mph 66% 0 in 691.00 W/m2 unknown
13:09 82.4 °F 69.8 °F 29.6 in SE 2.5 mph 8.1 mph 69% 0 in 264.00 W/m2 unknown
13:14 82.4 °F 69.8 °F 29.6 in SSW 4.3 mph 5 mph 69% 0 in 756.00 W/m2 unknown
13:19 82.4 °F 69.8 °F 29.6 in SW 3.1 mph 5 mph 65% 0 in 761.00 W/m2 unknown
13:24 82.4 °F 69.8 °F 29.6 in SW 5 mph 6.8 mph 65% 0 in 758.00 W/m2 unknown
13:29 84.2 °F 69.8 °F 29.6 in SW 5 mph 6.8 mph 64% 0 in 773.00 W/m2 unknown
13:34 84.2 °F 69.8 °F 29.6 in SW 4.3 mph 6.8 mph 63% 0 in 807.00 W/m2 unknown
13:39 84.2 °F 69.8 °F 29.6 in WSW 6.2 mph 8.1 mph 61% 0 in 802.00 W/m2 unknown
13:44 84.2 °F 69.8 °F 29.6 in SW 6.2 mph 8.1 mph 61% 0 in 796.00 W/m2 unknown
13:49 84.2 °F 69.8 °F 29.6 in SSW 5 mph 8.1 mph 61% 0 in 793.00 W/m2 unknown
13:54 84.2 °F 69.8 °F 29.6 in South 3.1 mph 6.8 mph 62% 0 in 793.00 W/m2 unknown
13:59 84.2 °F 69.8 °F 29.6 in SSW 3.1 mph 5 mph 62% 0 in 717.00 W/m2 unknown
14:04 86 °F 69.8 °F 29.6 in WNW 5.6 mph 8.1 mph 59% 0 in 726.00 W/m2 unknown
14:09 84.2 °F 68 °F 29.6 in NW 4.3 mph 8.1 mph 59% 0 in 721.00 W/m2 unknown
14:14 86 °F 71.6 °F 29.6 in NNW 4.3 mph 6.8 mph 63% 0 in 724.00 W/m2 unknown
14:19 86 °F 69.8 °F 29.6 in NW 4.3 mph 6.8 mph 59% 0 in 728.00 W/m2 unknown
14:24 86 °F 68 °F 29.6 in West 7.5 mph 10.6 mph 57% 0 in 722.00 W/m2 unknown
14:29 86 °F 68 °F 29.6 in West 6.8 mph 9.9 mph 57% 0 in 721.00 W/m2 unknown
14:34 86 °F 68 °F 29.6 in WNW 6.2 mph 9.3 mph 56% 0 in 710.00 W/m2 unknown
14:39 86 °F 68 °F 29.6 in West 6.2 mph 8.7 mph 55% 0 in 693.00 W/m2 unknown
14:44 86 °F 68 °F 29.6 in SW 6.8 mph 10.6 mph 56% 0 in 675.00 W/m2 unknown
14:49 84.2 °F 68 °F 29.6 in SW 5.6 mph 8.7 mph 57% 0 in 668.00 W/m2 unknown
14:54 86 °F 68 °F 29.6 in West 5.6 mph 9.3 mph 57% 0 in 661.00 W/m2 unknown
14:59 86 °F 68 °F 29.6 in SW 6.2 mph 8.1 mph 55% 0 in 659.00 W/m2 unknown
15:04 86 °F 68 °F 29.6 in WNW 6.8 mph 9.3 mph 55% 0 in 650.00 W/m2 unknown
15:09 86 °F 68 °F 29.6 in West 8.1 mph 9.9 mph 55% 0 in 636.00 W/m2 unknown
15:14 86 °F 68 °F 29.6 in West 8.1 mph 10.6 mph 55% 0 in 626.00 W/m2 unknown
15:19 86 °F 68 °F 29.6 in WSW 6.8 mph 10.6 mph 56% 0 in 624.00 W/m2 unknown
15:24 86 °F 68 °F 29.6 in WSW 6.8 mph 9.9 mph 56% 0 in 612.00 W/m2 unknown
15:29 86 °F 68 °F 29.6 in WNW 7.5 mph 9.3 mph 56% 0 in 596.00 W/m2 unknown
15:34 86 °F 68 °F 29.6 in West 7.5 mph 9.3 mph 55% 0 in 587.00 W/m2 unknown
15:39 86 °F 68 °F 29.6 in WSW 7.5 mph 11.8 mph 55% 0 in 582.00 W/m2 unknown
15:44 86 °F 68 °F 29.6 in SW 6.8 mph 11.8 mph 56% 0 in 580.00 W/m2 unknown
15:49 86 °F 68 °F 29.6 in WSW 6.2 mph 8.7 mph 55% 0 in 578.00 W/m2 unknown
15:54 86 °F 68 °F 29.6 in West 6.2 mph 9.3 mph 55% 0 in 577.00 W/m2 unknown
15:59 86 °F 68 °F 29.6 in WSW 6.2 mph 9.3 mph 54% 0 in 582.00 W/m2 unknown
16:04 86 °F 68 °F 29.6 in SW 6.2 mph 8.7 mph 55% 0 in 163.00 W/m2 unknown
16:09 86 °F 68 °F 29.6 in SW 10.6 mph 14.9 mph 56% 0 in 146.00 W/m2 unknown
16:14 86 °F 68 °F 29.6 in SW 6.2 mph 14.9 mph 56% 0 in 461.00 W/m2 unknown
16:19 86 °F 68 °F 29.6 in SW 6.8 mph 11.8 mph 57% 0 in 582.00 W/m2 unknown
16:24 86 °F 68 °F 29.6 in SSW 9.3 mph 13 mph 56% 0 in 575.00 W/m2 unknown
16:29 86 °F 68 °F 29.5 in SSW 9.3 mph 13 mph 55% 0 in 557.00 W/m2 unknown
16:34 86 °F 68 °F 29.5 in SSW 8.7 mph 14.3 mph 55% 0 in 529.00 W/m2 unknown
16:39 86 °F 68 °F 29.5 in SSW 8.7 mph 14.3 mph 56% 0 in 501.00 W/m2 unknown
16:44 86 °F 68 °F 29.5 in SSW 6.8 mph 11.8 mph 56% 0 in 501.00 W/m2 unknown
16:49 86 °F 68 °F 29.5 in SW 8.7 mph 11.8 mph 56% 0 in 485.00 W/m2 unknown
16:54 86 °F 68 °F 29.5 in SW 8.1 mph 11.8 mph 56% 0 in 471.00 W/m2 unknown
16:59 86 °F 68 °F 29.5 in SSW 8.1 mph 11.8 mph 56% 0 in 436.00 W/m2 unknown
17:04 86 °F 68 °F 29.5 in SSW 8.1 mph 11.8 mph 57% 0 in 387.00 W/m2 unknown
17:09 86 °F 68 °F 29.5 in South 8.1 mph 11.8 mph 57% 0 in 373.00 W/m2 unknown
17:14 86 °F 68 °F 29.5 in SW 6.2 mph 9.9 mph 57% 0 in 367.00 W/m2 unknown
17:19 84.2 °F 68 °F 29.5 in SSW 6.8 mph 9.9 mph 58% 0 in 315.00 W/m2 unknown
17:24 84.2 °F 68 °F 29.5 in SSW 9.3 mph 13 mph 58% 0 in 315.00 W/m2 unknown
17:29 84.2 °F 68 °F 29.5 in SW 9.3 mph 13 mph 58% 0 in 308.00 W/m2 unknown
17:34 84.2 °F 68 °F 29.5 in SSW 7.5 mph 13 mph 58% 0 in 301.00 W/m2 unknown
17:39 84.2 °F 68 °F 29.5 in SSW 7.5 mph 11.8 mph 58% 0 in 283.00 W/m2 unknown
17:44 84.2 °F 68 °F 29.5 in SSW 8.1 mph 13.7 mph 58% 0 in 274.00 W/m2 unknown
17:49 84.2 °F 68 °F 29.5 in SSW 8.1 mph 14.3 mph 59% 0 in 258.00 W/m2 unknown
17:54 84.2 °F 68 °F 29.5 in SSW 7.5 mph 11.8 mph 59% 0 in 246.00 W/m2 unknown
17:59 84.2 °F 68 °F 29.5 in SSW 6.8 mph 11.8 mph 59% 0 in 229.00 W/m2 unknown
18:04 84.2 °F 68 °F 29.5 in SSW 8.7 mph 14.9 mph 59% 0 in 218.00 W/m2 unknown
18:09 84.2 °F 68 °F 29.5 in SSW 8.1 mph 10.6 mph 59% 0 in 199.00 W/m2 unknown
18:14 82.4 °F 68 °F 29.5 in SSW 8.1 mph 13 mph 60% 0 in 188.00 W/m2 unknown
18:19 82.4 °F 68 °F 29.5 in SSW 7.5 mph 13 mph 60% 0 in 174.00 W/m2 unknown
18:24 82.4 °F 68 °F 29.5 in SSW 7.5 mph 11.8 mph 61% 0 in 60.00 W/m2 unknown
18:29 82.4 °F 68 °F 29.5 in SSW 6.8 mph 11.8 mph 61% 0 in 51.00 W/m2 unknown
18:34 82.4 °F 68 °F 29.5 in SSW 5.6 mph 9.9 mph 61% 0 in 86.00 W/m2 unknown
18:39 82.4 °F 68 °F 29.5 in SSW 5.6 mph 10.6 mph 62% 0 in 86.00 W/m2 unknown
18:44 82.4 °F 68 °F 29.5 in SSW 5.6 mph 9.9 mph 62% 0 in 32.00 W/m2 unknown
18:49 80.6 °F 68 °F 29.5 in SSW 5 mph 8.1 mph 63% 0 in 19.00 W/m2 unknown
18:54 80.6 °F 68 °F 29.5 in SW 3.7 mph 6.8 mph 63% 0 in 16.00 W/m2 unknown
18:59 80.6 °F 66.2 °F 29.5 in SW 3.1 mph 5 mph 63% 0 in 12.00 W/m2 unknown
19:04 80.6 °F 66.2 °F 29.5 in SSW 3.7 mph 6.2 mph 63% 0 in 11.00 W/m2 unknown
19:09 78.8 °F 66.2 °F 29.5 in SW 3.7 mph 6.2 mph 63% 0 in 11.00 W/m2 unknown
19:14 78.8 °F 66.2 °F 29.5 in SW 3.7 mph 6.2 mph 64% 0 in 7.00 W/m2 unknown
19:19 78.8 °F 66.2 °F 29.5 in SW 3.7 mph 6.2 mph 63% 0 in 5.00 W/m2 unknown
19:24 78.8 °F 66.2 °F 29.5 in SW 3.1 mph 6.2 mph 63% 0 in 0.00 W/m2 unknown
19:29 78.8 °F 64.4 °F 29.5 in SW 3.1 mph 3.7 mph 63% 0 in 0.00 W/m2 unknown
19:34 78.8 °F 64.4 °F 29.5 in SW 3.1 mph 3.7 mph 64% 0 in 0.00 W/m2 unknown
19:39 78.8 °F 66.2 °F 29.5 in SW 3.1 mph 3.7 mph 65% 0 in 0.00 W/m2 unknown
19:44 78.8 °F 64.4 °F 29.5 in SW 3.1 mph 5 mph 65% 0 in 0.00 W/m2 unknown
19:49 77 °F 64.4 °F 29.5 in SW 3.1 mph 5 mph 65% 0 in 0.00 W/m2 unknown
19:54 77 °F 64.4 °F 29.5 in SSW 5.6 mph 6.8 mph 65% 0 in 0.00 W/m2 unknown
19:59 77 °F 64.4 °F 29.5 in SW 5.6 mph 6.8 mph 65% 0 in 0.00 W/m2 unknown
20:04 77 °F 64.4 °F 29.5 in SW 5 mph 6.8 mph 66% 0 in 0.00 W/m2 unknown
20:09 77 °F 64.4 °F 29.5 in SW 3.1 mph 6.2 mph 66% 0 in 0.00 W/m2 unknown
20:14 77 °F 64.4 °F 29.5 in SW 3.7 mph 5 mph 66% 0 in 0.00 W/m2 unknown
20:19 77 °F 64.4 °F 29.5 in SW 3.7 mph 5 mph 68% 0 in 0.00 W/m2 unknown
20:24 77 °F 64.4 °F 29.5 in SW 3.1 mph 5 mph 69% 0 in 0.00 W/m2 unknown
20:29 75.2 °F 64.4 °F 29.5 in SW 3.7 mph 5 mph 69% 0 in 0.00 W/m2 unknown
20:34 75.2 °F 64.4 °F 29.5 in SSW 3.7 mph 5 mph 69% 0 in 0.00 W/m2 unknown
20:39 75.2 °F 64.4 °F 29.5 in SW 3.1 mph 5 mph 69% 0 in 0.00 W/m2 unknown
20:44 75.2 °F 64.4 °F 29.5 in SSW 1.9 mph 3.7 mph 69% 0 in 0.00 W/m2 unknown
20:49 75.2 °F 64.4 °F 29.5 in SW 2.5 mph 3.7 mph 70% 0 in 0.00 W/m2 unknown
20:54 75.2 °F 64.4 °F 29.5 in SW 1.2 mph 3.1 mph 71% 0 in 0.00 W/m2 unknown
20:59 73.4 °F 64.4 °F 29.5 in ENE 3.1 mph 3.7 mph 72% 0 in 0.00 W/m2 unknown
21:04 73.4 °F 64.4 °F 29.5 in ENE 3.1 mph 3.7 mph 74% 0 in 0.00 W/m2 unknown
21:09 73.4 °F 64.4 °F 29.5 in East 5 mph 6.2 mph 76% 0 in 0.00 W/m2 unknown
21:14 71.6 °F 64.4 °F 29.5 in East 5 mph 6.2 mph 76% 0 in 0.00 W/m2 unknown
21:19 71.6 °F 64.4 °F 29.5 in ESE 5 mph 6.2 mph 76% 0 in 0.00 W/m2 unknown
21:24 71.6 °F 64.4 °F 29.5 in East 3.7 mph 6.2 mph 75% 0 in 0.00 W/m2 unknown
21:29 71.6 °F 64.4 °F 29.5 in East 3.1 mph 5 mph 75% 0 in 0.00 W/m2 unknown
21:34 71.6 °F 64.4 °F 29.5 in East 3.1 mph 5 mph 77% 0 in 0.00 W/m2 unknown
21:38 71.6 °F 64.4 °F 29.5 in East 5 mph 5 mph 77% 0 in 0.00 W/m2 unknown
21:44 71.6 °F 62.6 °F 29.5 in East 5 mph 5 mph 77% 0 in 0.00 W/m2 unknown
21:49 71.6 °F 64.4 °F 29.5 in East 3.7 mph 6.2 mph 78% 0 in 0.00 W/m2 unknown
21:54 69.8 °F 64.4 °F 29.5 in ENE 4.3 mph 6.2 mph 79% 0 in 0.00 W/m2 unknown
21:59 71.6 °F 64.4 °F 29.5 in East 3.7 mph 6.2 mph 78% 0 in 0.00 W/m2 unknown
22:04 71.6 °F 62.6 °F 29.5 in East 4.3 mph 5 mph 77% 0 in 0.00 W/m2 unknown
22:09 71.6 °F 64.4 °F 29.5 in East 4.3 mph 5 mph 78% 0 in 0.00 W/m2 unknown
22:14 71.6 °F 64.4 °F 29.5 in ENE 3.1 mph 5 mph 78% 0 in 0.00 W/m2 unknown
22:19 71.6 °F 64.4 °F 29.5 in East 5 mph 6.8 mph 78% 0 in 0.00 W/m2 unknown
22:24 71.6 °F 64.4 °F 29.5 in East 5 mph 6.8 mph 79% 0 in 0.00 W/m2 unknown
22:29 71.6 °F 64.4 °F 29.5 in East 5 mph 8.1 mph 80% 0 in 0.00 W/m2 unknown
22:34 71.6 °F 64.4 °F 29.5 in ENE 6.2 mph 9.3 mph 80% 0 in 0.00 W/m2 unknown
22:39 71.6 °F 64.4 °F 29.5 in East 6.8 mph 10.6 mph 82% 0 in 0.00 W/m2 unknown
22:44 71.6 °F 64.4 °F 29.6 in East 6.8 mph 9.9 mph 82% 0 in 0.00 W/m2 unknown
22:49 71.6 °F 64.4 °F 29.6 in East 8.1 mph 11.8 mph 82% 0 in 0.00 W/m2 unknown
22:54 71.6 °F 64.4 °F 29.6 in ENE 8.1 mph 11.8 mph 82% 0 in 0.00 W/m2 unknown
22:59 71.6 °F 66.2 °F 29.6 in ENE 9.3 mph 16.2 mph 84% 0 in 0.00 W/m2 unknown
23:04 71.6 °F 66.2 °F 29.6 in East 10.6 mph 16.2 mph 85% 0 in 0.00 W/m2 unknown
23:09 69.8 °F 66.2 °F 29.6 in East 9.9 mph 16.2 mph 85% 0 in 0.00 W/m2 unknown
23:14 69.8 °F 66.2 °F 29.6 in ENE 9.9 mph 14.3 mph 86% 0 in 0.00 W/m2 unknown
23:19 69.8 °F 66.2 °F 29.6 in ENE 6.8 mph 13 mph 86% 0 in 0.00 W/m2 unknown
23:24 69.8 °F 66.2 °F 29.6 in East 8.1 mph 11.8 mph 87% 0 in 0.00 W/m2 unknown
23:29 69.8 °F 66.2 °F 29.6 in ENE 10.6 mph 14.9 mph 87% 0 in 0.00 W/m2 unknown
23:34 69.8 °F 64.4 °F 29.6 in ENE 10.6 mph 14.9 mph 86% 0 in 0.00 W/m2 unknown
23:39 69.8 °F 64.4 °F 29.6 in East 9.9 mph 14.9 mph 86% 0 in 0.00 W/m2 unknown
23:44 68 °F 64.4 °F 29.6 in East 8.7 mph 14.9 mph 87% 0 in 0.00 W/m2 unknown
23:49 68 °F 64.4 °F 29.6 in East 9.3 mph 14.3 mph 87% 0 in 0.00 W/m2 unknown
23:54 68 °F 64.4 °F 29.6 in East 11.2 mph 14.9 mph 87% 0 in 0.00 W/m2 unknown
23:59 68 °F 64.4 °F 29.6 in East 12.4 mph 17.4 mph 87% 0 in 0.00 W/m2 unknown
Stazione Meteorologica MeteoMincio Rivalta s/M (MN)
Con i complimenti di Weather Underground - 4 mb



METEO PILLOLE
Maggior quantità di pioggia caduta in 12 mesi
Cherrapunji (1313 m) - India
tra il 1 agosto 1860 e il 31 luglio 1861 sono caduti 26466.8 mm .
Share

Non seguire questo link o sarai bannato dal sito!